Time;durP1;ratioP1;P1;durP2;ratioP2;P2;SDS_P1;SDS_P2;PMS_P1;PMS_P2;Temp;Humidity;BMP_temperature;BMP_pressure;BME280_temperature;BME280_humidity;BME280_pressure;Samples;Min_cycle;Max_cycle;Signal;HPM_P1;HPM_P2
2023/04/30 00:02:13;;;;;;;0.10;0.10;;;10.20;99.90;;;;;;5017040;28;20049;-64
2023/04/30 00:04:39;;;;;;;0.10;0.10;;;10.20;99.90;;;;;;5018191;28;20041;-64
2023/04/30 00:07:04;;;;;;;2.72;1.10;;;10.20;99.90;;;;;;5018088;28;20481;-64
2023/04/30 00:09:30;;;;;;;2.33;1.38;;;10.20;99.90;;;;;;5018719;28;20041;-64
2023/04/30 00:11:56;;;;;;;4.40;1.23;;;10.10;99.90;;;;;;5010297;28;20157;-64
2023/04/30 00:14:21;;;;;;;0.10;0.10;;;10.10;99.90;;;;;;5018159;28;20551;-64
2023/04/30 00:16:47;;;;;;;0.05;0.05;;;10.10;99.90;;;;;;5015243;28;20125;-64
2023/04/30 00:19:12;;;;;;;0.10;0.10;;;10.10;99.90;;;;;;5013423;28;20060;-64
2023/04/30 00:21:38;;;;;;;0.10;0.10;;;10.10;99.90;;;;;;5013095;28;20405;-64
2023/04/30 00:24:04;;;;;;;0.10;0.10;;;10.00;99.90;;;;;;5008662;28;20073;-64
2023/04/30 00:26:30;;;;;;;0.10;0.10;;;10.00;99.90;;;;;;5019892;28;20037;-64
2023/04/30 00:28:55;;;;;;;0.10;0.10;;;10.00;99.90;;;;;;5026678;28;20044;-64
2023/04/30 00:31:21;;;;;;;0.10;0.10;;;9.90;99.90;;;;;;5015018;28;20046;-64
2023/04/30 00:33:47;;;;;;;0.05;0.05;;;9.90;99.90;;;;;;5020698;28;20037;-64
2023/04/30 00:36:12;;;;;;;0.15;0.15;;;9.90;99.90;;;;;;5022420;28;20447;-64
2023/04/30 00:38:38;;;;;;;0.10;0.10;;;9.80;99.90;;;;;;5009261;28;20034;-64
2023/04/30 00:41:05;;;;;;;0.55;0.55;;;9.80;99.90;;;;;;5007577;28;20069;-64
2023/04/30 00:43:30;;;;;;;3.92;1.95;;;9.80;99.90;;;;;;5013730;28;20049;-64
2023/04/30 00:45:57;;;;;;;0.55;0.55;;;9.80;99.90;;;;;;5020573;28;20053;-64
2023/04/30 00:48:23;;;;;;;0.40;0.40;;;9.80;99.90;;;;;;5016566;28;20402;-64
2023/04/30 00:50:49;;;;;;;0.20;0.20;;;9.80;99.90;;;;;;5007379;28;20045;-64
2023/04/30 00:53:16;;;;;;;0.10;0.10;;;9.70;99.90;;;;;;5006901;28;20456;-63
2023/04/30 00:55:43;;;;;;;1.35;1.25;;;9.70;99.90;;;;;;5011695;28;20061;-64
2023/04/30 00:58:08;;;;;;;0.00;0.00;;;9.70;99.90;;;;;;5012794;28;20465;-64
2023/04/30 01:00:34;;;;;;;0.10;0.10;;;9.70;99.90;;;;;;5019521;28;20044;-64
2023/04/30 01:03:00;;;;;;;0.40;0.35;;;9.70;99.90;;;;;;5009101;28;20045;-64
2023/04/30 01:05:26;;;;;;;1.80;0.57;;;9.70;99.90;;;;;;5007115;28;20049;-64
2023/04/30 01:07:54;;;;;;;0.10;0.10;;;9.70;99.90;;;;;;5010628;28;20046;-64
2023/04/30 01:10:22;;;;;;;0.10;0.10;;;9.70;99.90;;;;;;5009281;28;20049;-64
2023/04/30 01:13:10;;;;;;;0.20;0.20;;;9.80;99.90;;;;;;5012409;28;20053;-64
2023/04/30 01:15:53;;;;;;;0.20;0.20;;;9.80;99.90;;;;;;5011407;28;20124;-64
2023/04/30 01:18:27;;;;;;;0.00;0.00;;;9.80;99.90;;;;;;5017511;28;20119;-64
2023/04/30 01:21:01;;;;;;;0.20;0.20;;;9.90;99.90;;;;;;5012412;28;20031;-64
2023/04/30 01:24:04;;;;;;;0.00;0.00;;;9.90;99.90;;;;;;5028822;28;20045;-64
2023/04/30 01:27:01;;;;;;;0.10;0.10;;;9.90;99.90;;;;;;5025617;28;20402;-64
2023/04/30 01:29:29;;;;;;;0.30;0.30;;;9.90;99.90;;;;;;5014172;28;20864;-64
2023/04/30 01:31:54;;;;;;;0.20;0.20;;;9.80;99.90;;;;;;5017843;28;20052;-64
2023/04/30 01:34:20;;;;;;;0.15;0.15;;;9.90;99.90;;;;;;5026912;28;20041;-64
2023/04/30 01:37:06;;;;;;;0.22;0.22;;;9.80;99.90;;;;;;5015689;28;20077;-64
2023/04/30 01:39:57;;;;;;;0.10;0.10;;;9.80;99.90;;;;;;5025881;28;20054;-64
2023/04/30 01:42:35;;;;;;;0.00;0.00;;;9.90;99.90;;;;;;5013448;28;20537;-64
2023/04/30 01:45:07;;;;;;;0.17;0.17;;;9.80;99.90;;;;;;5020104;28;20056;-64
2023/04/30 01:47:43;;;;;;;0.00;0.00;;;9.80;99.90;;;;;;5010867;28;20115;-64
2023/04/30 01:50:33;;;;;;;0.10;0.10;;;9.90;99.90;;;;;;5022128;28;20046;-64
2023/04/30 01:53:00;;;;;;;0.10;0.10;;;9.80;99.90;;;;;;5016772;28;20065;-64
2023/04/30 01:55:48;;;;;;;10.73;1.00;;;9.70;99.90;;;;;;5017661;28;20058;-64
2023/04/30 01:58:15;;;;;;;0.10;0.10;;;9.80;99.90;;;;;;5011084;28;20057;-64
2023/04/30 02:00:41;;;;;;;0.20;0.20;;;9.80;99.90;;;;;;5010453;28;20120;-64
2023/04/30 02:03:06;;;;;;;0.30;0.30;;;9.80;99.90;;;;;;5020709;28;20057;-64
2023/04/30 02:05:32;;;;;;;0.00;0.00;;;9.80;99.90;;;;;;5028285;28;20071;-64
2023/04/30 02:07:58;;;;;;;0.10;0.10;;;9.80;99.90;;;;;;5020626;28;20049;-64
2023/04/30 02:10:25;;;;;;;0.00;0.00;;;9.80;99.90;;;;;;5026731;28;20042;-64
2023/04/30 02:12:52;;;;;;;0.13;0.13;;;9.80;99.90;;;;;;5012846;28;20135;-64
2023/04/30 02:15:17;;;;;;;0.10;0.10;;;9.70;99.90;;;;;;5015589;28;20480;-64
2023/04/30 02:17:43;;;;;;;0.10;0.10;;;9.70;99.90;;;;;;5015514;28;20096;-64
2023/04/30 02:20:09;;;;;;;0.10;0.10;;;9.80;99.90;;;;;;5011314;28;20038;-64
2023/04/30 02:22:35;;;;;;;0.20;0.20;;;9.80;99.90;;;;;;5010491;28;20501;-64
2023/04/30 02:25:01;;;;;;;0.10;0.10;;;9.70;99.90;;;;;;5014828;28;20040;-64
2023/04/30 02:27:31;;;;;;;0.00;0.00;;;9.80;99.90;;;;;;5021783;28;20043;-64
2023/04/30 02:29:57;;;;;;;0.20;0.20;;;9.80;99.90;;;;;;5013818;28;20563;-64
2023/04/30 02:32:23;;;;;;;0.10;0.10;;;9.90;99.90;;;;;;5015768;28;20057;-64
2023/04/30 02:34:49;;;;;;;0.00;0.00;;;9.80;99.90;;;;;;5023788;28;20363;-64
2023/04/30 02:37:14;;;;;;;0.10;0.10;;;9.80;99.90;;;;;;5025047;28;20033;-64
2023/04/30 02:39:40;;;;;;;0.00;0.00;;;9.80;99.90;;;;;;5010020;28;20030;-64
2023/04/30 02:42:06;;;;;;;0.10;0.10;;;9.70;99.90;;;;;;5022916;28;20114;-64
2023/04/30 02:44:32;;;;;;;0.08;0.08;;;9.70;99.90;;;;;;5017421;28;20040;-64
2023/04/30 02:46:58;;;;;;;0.10;0.10;;;9.70;99.90;;;;;;5021407;28;20567;-64
2023/04/30 02:49:24;;;;;;;0.00;0.00;;;9.70;99.90;;;;;;5022756;28;20045;-64
2023/04/30 02:51:49;;;;;;;2.88;2.75;;;9.60;99.90;;;;;;5013742;28;20061;-64
2023/04/30 02:54:15;;;;;;;0.30;0.30;;;9.70;99.90;;;;;;5016444;28;20103;-64
2023/04/30 02:56:42;;;;;;;0.00;0.00;;;9.70;99.90;;;;;;5014129;28;20049;-64
2023/04/30 02:59:08;;;;;;;1.55;0.75;;;9.70;99.90;;;;;;5021404;28;20120;-64
2023/04/30 03:01:34;;;;;;;0.10;0.10;;;9.60;99.90;;;;;;5011513;28;20125;-64
2023/04/30 03:03:59;;;;;;;0.10;0.10;;;9.60;99.90;;;;;;5021335;28;20045;-64
2023/04/30 03:06:25;;;;;;;0.10;0.10;;;9.50;99.90;;;;;;5017837;28;20037;-64
2023/04/30 03:08:50;;;;;;;0.10;0.10;;;9.40;99.90;;;;;;5017769;28;20038;-63
2023/04/30 03:11:16;;;;;;;9.32;1.25;;;9.40;99.90;;;;;;5021941;28;20392;-64
2023/04/30 03:13:42;;;;;;;3.13;1.65;;;9.40;99.90;;;;;;5018380;28;20140;-64
2023/04/30 03:16:08;;;;;;;0.00;0.00;;;9.40;99.90;;;;;;5010698;28;20081;-64
2023/04/30 03:18:33;;;;;;;0.00;0.00;;;9.40;99.90;;;;;;5009641;28;20068;-63
2023/04/30 03:20:59;;;;;;;0.00;0.00;;;9.40;99.90;;;;;;5016940;28;21227;-64
2023/04/30 03:23:26;;;;;;;0.00;0.00;;;9.40;99.90;;;;;;5022242;28;20124;-64
2023/04/30 03:25:52;;;;;;;0.20;0.20;;;9.30;99.90;;;;;;5026710;28;20044;-64
2023/04/30 03:28:18;;;;;;;0.00;0.00;;;9.20;99.90;;;;;;5012901;28;20045;-64
2023/04/30 03:30:43;;;;;;;0.00;0.00;;;9.20;99.90;;;;;;5011346;28;20046;-64
2023/04/30 03:33:09;;;;;;;0.10;0.10;;;9.20;99.90;;;;;;5013904;28;20042;-64
2023/04/30 03:35:35;;;;;;;5.13;0.45;;;9.10;99.90;;;;;;5017475;28;20049;-64
2023/04/30 03:38:01;;;;;;;0.13;0.13;;;9.10;99.90;;;;;;5017574;28;20051;-64
2023/04/30 03:40:26;;;;;;;1.27;1.17;;;9.10;99.90;;;;;;5013835;28;20497;-64
2023/04/30 03:42:52;;;;;;;0.00;0.00;;;9.10;99.90;;;;;;5020487;28;20087;-64
2023/04/30 03:45:18;;;;;;;0.10;0.10;;;9.20;99.90;;;;;;5013581;28;20104;-64
2023/04/30 03:47:43;;;;;;;0.00;0.00;;;9.10;99.90;;;;;;5011335;28;20041;-64
2023/04/30 03:50:10;;;;;;;0.10;0.10;;;9.10;99.90;;;;;;5016653;28;20036;-64
2023/04/30 03:52:36;;;;;;;0.30;0.30;;;9.10;99.90;;;;;;5011608;28;20076;-64
2023/04/30 03:55:05;;;;;;;0.15;0.15;;;9.10;99.90;;;;;;5011942;28;20050;-64
2023/04/30 03:57:31;;;;;;;0.00;0.00;;;9.00;99.90;;;;;;5013245;28;20050;-64
2023/04/30 03:59:57;;;;;;;0.10;0.10;;;9.00;99.90;;;;;;5012833;28;20053;-64
2023/04/30 04:02:24;;;;;;;0.10;0.10;;;9.00;99.90;;;;;;5008486;28;20058;-64
2023/04/30 04:04:50;;;;;;;0.10;0.10;;;8.90;99.90;;;;;;5016484;28;20197;-64
2023/04/30 04:07:16;;;;;;;0.10;0.10;;;8.90;99.90;;;;;;5010136;28;20646;-64
2023/04/30 04:09:41;;;;;;;0.10;0.10;;;8.90;99.90;;;;;;5010936;28;20139;-64
2023/04/30 04:12:07;;;;;;;0.00;0.00;;;8.90;99.90;;;;;;5012503;28;20089;-64
2023/04/30 04:14:33;;;;;;;0.10;0.10;;;8.90;99.90;;;;;;5010138;28;20037;-64
2023/04/30 04:16:59;;;;;;;0.10;0.10;;;9.00;99.90;;;;;;5020214;28;20041;-64
2023/04/30 04:19:28;;;;;;;0.20;0.20;;;9.00;99.90;;;;;;5010217;28;20057;-64
2023/04/30 04:21:53;;;;;;;0.10;0.10;;;8.80;99.90;;;;;;5015099;28;20046;-64
2023/04/30 04:24:19;;;;;;;0.10;0.10;;;8.70;99.90;;;;;;5007961;28;20049;-64
2023/04/30 04:26:44;;;;;;;0.10;0.10;;;8.60;99.90;;;;;;5017437;28;20141;-64
2023/04/30 04:29:11;;;;;;;0.03;0.03;;;8.70;99.90;;;;;;5008420;28;20087;-64
2023/04/30 04:31:37;;;;;;;0.10;0.10;;;8.70;99.90;;;;;;5015505;28;20055;-64
2023/04/30 04:34:03;;;;;;;0.00;0.00;;;8.60;99.90;;;;;;5030559;28;20057;-64
2023/04/30 04:36:30;;;;;;;1.35;0.73;;;8.60;99.90;;;;;;5011760;28;20049;-64
2023/04/30 04:38:56;;;;;;;4.65;1.02;;;8.60;99.90;;;;;;5012676;28;20041;-64
2023/04/30 04:41:23;;;;;;;0.80;0.55;;;8.60;99.90;;;;;;5018990;28;20048;-64
2023/04/30 04:43:49;;;;;;;0.20;0.20;;;8.60;99.90;;;;;;5011380;28;20059;-64
2023/04/30 04:46:15;;;;;;;0.55;0.55;;;8.60;99.90;;;;;;5010244;28;20156;-64
2023/04/30 04:48:41;;;;;;;1.30;0.47;;;8.60;99.90;;;;;;5010150;28;20125;-64
2023/04/30 04:51:07;;;;;;;0.00;0.00;;;8.70;99.90;;;;;;5018305;28;20045;-64
2023/04/30 04:53:32;;;;;;;0.30;0.30;;;8.70;99.90;;;;;;5008573;28;20050;-64
2023/04/30 04:55:58;;;;;;;0.10;0.10;;;8.70;99.90;;;;;;5012966;28;20505;-64
2023/04/30 04:58:24;;;;;;;0.35;0.35;;;8.60;99.90;;;;;;5022159;28;20065;-63
2023/04/30 05:00:49;;;;;;;0.20;0.20;;;8.60;99.90;;;;;;5028295;28;20130;-64
2023/04/30 05:03:15;;;;;;;0.10;0.10;;;8.70;99.90;;;;;;5023012;28;20073;-64
2023/04/30 05:05:40;;;;;;;2.83;1.30;;;8.70;99.90;;;;;;5022421;28;20107;-63
2023/04/30 05:08:06;;;;;;;0.30;0.30;;;8.70;99.90;;;;;;5023212;28;20041;-64
2023/04/30 05:10:31;;;;;;;0.00;0.00;;;8.70;99.90;;;;;;5026684;28;20041;-64
2023/04/30 05:12:57;;;;;;;0.30;0.30;;;8.70;99.90;;;;;;5022212;28;20041;-63
2023/04/30 05:15:23;;;;;;;0.10;0.10;;;8.80;99.90;;;;;;5011673;28;20052;-64
2023/04/30 05:17:48;;;;;;;0.00;0.00;;;8.90;99.90;;;;;;5024364;28;20070;-64
2023/04/30 05:20:14;;;;;;;0.10;0.10;;;9.00;99.90;;;;;;5018200;28;20128;-63
2023/04/30 05:22:39;;;;;;;0.57;0.57;;;9.00;99.90;;;;;;5016345;28;20041;-64
2023/04/30 05:25:05;;;;;;;0.00;0.00;;;9.00;99.90;;;;;;5016436;28;20054;-64
2023/04/30 05:27:31;;;;;;;0.10;0.10;;;9.10;99.90;;;;;;5021265;28;20033;-64
2023/04/30 05:29:57;;;;;;;0.10;0.10;;;9.20;99.90;;;;;;5014022;28;20044;-64
2023/04/30 05:32:22;;;;;;;1.55;0.40;;;9.10;99.90;;;;;;5015005;28;20184;-64
2023/04/30 05:34:48;;;;;;;0.10;0.10;;;9.20;99.90;;;;;;5019872;28;20042;-64
2023/04/30 05:37:15;;;;;;;0.10;0.10;;;9.20;99.90;;;;;;5020617;28;20963;-64
2023/04/30 05:39:41;;;;;;;0.10;0.10;;;9.20;99.90;;;;;;5014184;28;20548;-64
2023/04/30 05:42:06;;;;;;;0.00;0.00;;;9.20;99.90;;;;;;5017204;28;20034;-64
2023/04/30 05:44:32;;;;;;;1.30;1.20;;;9.20;99.90;;;;;;5013535;28;20092;-64
2023/04/30 05:46:57;;;;;;;0.10;0.10;;;9.30;99.90;;;;;;5011854;28;20042;-64
2023/04/30 05:49:23;;;;;;;0.03;0.03;;;9.30;99.90;;;;;;5011434;28;20120;-64
2023/04/30 05:51:49;;;;;;;10.45;2.08;;;9.30;99.90;;;;;;5010860;28;20514;-64
2023/04/30 05:54:15;;;;;;;0.10;0.10;;;9.30;99.90;;;;;;5016777;28;20076;-64
2023/04/30 05:56:40;;;;;;;0.65;0.65;;;9.30;99.90;;;;;;5012087;28;20474;-64
2023/04/30 05:59:06;;;;;;;0.10;0.10;;;9.40;99.90;;;;;;5014083;28;20049;-64
2023/04/30 06:01:32;;;;;;;0.10;0.10;;;9.50;99.90;;;;;;5014542;28;20049;-64
2023/04/30 06:04:00;;;;;;;4.30;1.13;;;9.40;99.90;;;;;;5013932;28;20091;-63
2023/04/30 06:06:26;;;;;;;0.10;0.10;;;9.50;99.90;;;;;;5021667;28;20092;-64
2023/04/30 06:08:52;;;;;;;0.10;0.10;;;9.60;99.90;;;;;;5013558;28;20100;-64
2023/04/30 06:11:18;;;;;;;0.00;0.00;;;9.60;99.90;;;;;;5031110;28;20057;-64
2023/04/30 06:13:46;;;;;;;0.20;0.20;;;9.50;99.90;;;;;;5015705;28;20045;-64
2023/04/30 06:16:12;;;;;;;0.10;0.10;;;9.50;99.90;;;;;;5015922;28;20520;-64
2023/04/30 06:18:37;;;;;;;0.40;0.40;;;9.50;99.90;;;;;;5014921;28;20073;-64
2023/04/30 06:21:03;;;;;;;0.10;0.10;;;9.60;99.90;;;;;;5021065;28;20042;-64
2023/04/30 06:23:29;;;;;;;0.20;0.20;;;9.70;99.90;;;;;;5015652;28;20044;-63
2023/04/30 06:25:54;;;;;;;0.10;0.10;;;9.80;99.90;;;;;;5019682;28;20069;-64
2023/04/30 06:28:20;;;;;;;1.13;1.13;;;9.80;99.90;;;;;;5013792;28;20042;-64
2023/04/30 06:30:46;;;;;;;0.10;0.10;;;9.90;99.90;;;;;;5019224;28;20361;-64
2023/04/30 06:33:11;;;;;;;0.10;0.10;;;10.00;99.90;;;;;;5021020;28;20107;-63
2023/04/30 06:35:37;;;;;;;0.10;0.10;;;10.00;99.90;;;;;;5011145;28;20034;-63
2023/04/30 06:38:03;;;;;;;0.00;0.00;;;10.00;99.90;;;;;;5010134;28;20049;-63
2023/04/30 06:40:28;;;;;;;0.00;0.00;;;10.00;99.90;;;;;;5009860;28;20046;-63
2023/04/30 06:42:54;;;;;;;1.17;1.00;;;10.10;99.90;;;;;;5013292;28;20125;-63
2023/04/30 06:45:20;;;;;;;0.10;0.10;;;10.00;99.90;;;;;;5026477;28;20099;-63
2023/04/30 06:47:46;;;;;;;0.10;0.10;;;10.00;99.90;;;;;;5012159;28;20402;-63
2023/04/30 06:50:11;;;;;;;0.10;0.10;;;10.10;99.90;;;;;;5010712;28;20041;-63
2023/04/30 06:52:38;;;;;;;0.10;0.10;;;10.10;99.90;;;;;;5009063;28;20133;-63
2023/04/30 06:55:03;;;;;;;0.00;0.00;;;10.10;99.90;;;;;;5008942;28;20057;-63
2023/04/30 06:57:30;;;;;;;0.28;0.28;;;10.10;99.90;;;;;;5011749;28;20046;-63
2023/04/30 06:59:55;;;;;;;0.70;0.70;;;10.20;99.90;;;;;;5009264;28;20049;-63
2023/04/30 07:02:21;;;;;;;0.10;0.10;;;10.30;99.90;;;;;;5009237;28;20037;-63
2023/04/30 07:04:48;;;;;;;0.68;0.68;;;10.30;99.90;;;;;;5018493;28;20103;-63
2023/04/30 07:07:14;;;;;;;3.97;1.25;;;10.40;99.90;;;;;;5017210;28;20045;-63
2023/04/30 07:09:40;;;;;;;0.10;0.10;;;10.50;99.90;;;;;;5009754;28;20038;-63
2023/04/30 07:12:06;;;;;;;0.10;0.10;;;10.40;99.90;;;;;;5008369;28;20472;-63
2023/04/30 07:14:31;;;;;;;0.17;0.17;;;10.50;99.90;;;;;;5017632;28;20034;-64
2023/04/30 07:16:57;;;;;;;0.00;0.00;;;10.50;99.90;;;;;;5014224;28;20686;-63
2023/04/30 07:19:24;;;;;;;0.00;0.00;;;10.60;99.90;;;;;;5022426;28;20050;-63
2023/04/30 07:21:49;;;;;;;0.05;0.05;;;10.60;99.90;;;;;;5007970;28;20108;-64
2023/04/30 07:24:15;;;;;;;3.35;1.10;;;10.60;99.90;;;;;;5009361;28;20129;-64
2023/04/30 07:26:41;;;;;;;0.10;0.10;;;10.70;99.90;;;;;;5011598;28;20460;-63
2023/04/30 07:29:07;;;;;;;0.10;0.10;;;10.80;99.90;;;;;;5021324;28;20056;-63
2023/04/30 07:31:33;;;;;;;0.03;0.03;;;10.80;99.90;;;;;;5009139;28;20519;-63
2023/04/30 07:33:58;;;;;;;0.10;0.10;;;10.90;99.90;;;;;;5014802;28;20566;-63
2023/04/30 07:36:26;;;;;;;0.10;0.10;;;10.90;99.90;;;;;;5013403;28;20044;-62
2023/04/30 07:38:52;;;;;;;0.10;0.10;;;11.10;99.90;;;;;;5015969;28;20100;-63
2023/04/30 07:41:17;;;;;;;0.17;0.17;;;11.10;99.90;;;;;;5008065;28;20038;-62
2023/04/30 07:43:43;;;;;;;1.00;0.43;;;11.10;99.90;;;;;;5012201;28;20084;-62
2023/04/30 07:46:09;;;;;;;0.10;0.10;;;11.30;99.90;;;;;;5009563;28;20042;-63
2023/04/30 07:48:34;;;;;;;0.03;0.03;;;11.40;99.90;;;;;;5008468;28;20592;-64
2023/04/30 07:51:00;;;;;;;0.10;0.10;;;11.60;99.90;;;;;;5011470;28;20045;-63
2023/04/30 07:53:26;;;;;;;0.10;0.10;;;11.70;99.90;;;;;;5017857;28;20427;-64
2023/04/30 07:55:52;;;;;;;0.00;0.00;;;11.60;99.90;;;;;;5019287;28;20045;-63
2023/04/30 07:58:17;;;;;;;0.08;0.08;;;11.50;99.90;;;;;;5008348;28;20084;-63
2023/04/30 08:00:43;;;;;;;0.10;0.10;;;11.50;99.90;;;;;;5008681;28;20045;-63
2023/04/30 08:03:08;;;;;;;0.00;0.00;;;11.60;99.90;;;;;;5023876;28;20042;-64
2023/04/30 08:05:34;;;;;;;0.93;0.90;;;11.60;99.90;;;;;;5020714;28;20085;-64
2023/04/30 08:08:00;;;;;;;0.43;0.43;;;11.50;99.90;;;;;;5009108;28;20402;-63
2023/04/30 08:10:25;;;;;;;0.43;0.43;;;11.50;99.90;;;;;;5014586;28;20110;-63
2023/04/30 08:12:51;;;;;;;0.10;0.10;;;11.50;99.90;;;;;;5008490;28;20038;-64
2023/04/30 08:15:20;;;;;;;0.10;0.10;;;11.50;99.90;;;;;;5010164;28;20492;-63
2023/04/30 08:17:49;;;;;;;0.30;0.30;;;11.40;99.90;;;;;;5012884;28;20045;-64
2023/04/30 08:20:15;;;;;;;0.40;0.40;;;11.50;99.90;;;;;;5008325;28;20046;-64
2023/04/30 08:22:40;;;;;;;3.42;1.50;;;11.60;99.90;;;;;;5009073;28;20508;-63
2023/04/30 08:25:09;;;;;;;0.20;0.20;;;11.70;99.90;;;;;;5008574;28;20038;-63
2023/04/30 08:27:35;;;;;;;0.10;0.10;;;11.70;99.90;;;;;;5008294;28;20120;-63
2023/04/30 08:30:00;;;;;;;1.15;0.43;;;11.90;99.90;;;;;;5007343;28;20497;-63
2023/04/30 08:32:27;;;;;;;0.00;0.00;;;12.10;99.90;;;;;;5011234;28;20049;-63
2023/04/30 08:34:53;;;;;;;0.47;0.47;;;12.20;99.90;;;;;;5013039;28;20053;-63
2023/04/30 08:37:18;;;;;;;0.10;0.10;;;12.30;99.90;;;;;;5011346;28;20042;-64
2023/04/30 08:39:44;;;;;;;0.88;0.85;;;12.10;99.90;;;;;;5009786;28;20044;-63
2023/04/30 08:42:13;;;;;;;0.08;0.08;;;12.10;99.90;;;;;;5008513;28;20056;-64
2023/04/30 08:44:42;;;;;;;4.28;2.15;;;12.10;99.90;;;;;;5006918;28;20137;-63
2023/04/30 08:47:12;;;;;;;10.18;0.45;;;12.00;99.90;;;;;;5015167;28;20104;-64
2023/04/30 08:49:38;;;;;;;0.10;0.10;;;12.20;99.90;;;;;;5021114;28;20038;-64
2023/04/30 08:52:04;;;;;;;0.10;0.10;;;12.30;99.90;;;;;;5007532;28;20802;-64
2023/04/30 08:54:32;;;;;;;0.73;0.57;;;12.40;99.90;;;;;;5013555;28;20495;-64
2023/04/30 08:56:57;;;;;;;0.35;0.35;;;12.30;99.90;;;;;;5014802;28;20059;-64
2023/04/30 08:59:23;;;;;;;0.10;0.10;;;12.40;99.90;;;;;;5011194;28;20049;-63
2023/04/30 09:01:49;;;;;;;0.10;0.10;;;12.50;99.90;;;;;;5011354;28;20077;-63
2023/04/30 09:04:15;;;;;;;0.20;0.20;;;12.50;99.90;;;;;;5013717;28;20116;-63
2023/04/30 09:06:42;;;;;;;0.22;0.22;;;12.60;99.90;;;;;;5020047;28;20115;-63
2023/04/30 09:09:12;;;;;;;0.10;0.10;;;12.70;99.90;;;;;;5014286;28;20037;-63
2023/04/30 09:11:38;;;;;;;0.35;0.35;;;12.70;99.90;;;;;;5007013;28;20041;-63
2023/04/30 09:14:04;;;;;;;0.00;0.00;;;13.00;99.90;;;;;;5012027;28;20084;-63
2023/04/30 09:16:48;;;;;;;0.20;0.20;;;12.90;99.90;;;;;;5008062;28;20046;-63
2023/04/30 09:19:22;;;;;;;;;;;13.00;99.90;;;;;;5011039;28;20069;-63
2023/04/30 09:21:47;;;;;;;0.32;0.32;;;13.10;99.90;;;;;;5007557;28;20036;-63
2023/04/30 09:24:13;;;;;;;5.20;1.02;;;13.20;99.90;;;;;;5007891;28;20116;-63
2023/04/30 09:26:39;;;;;;;0.20;0.20;;;13.30;99.90;;;;;;5006951;28;20049;-64
2023/04/30 09:29:08;;;;;;;0.10;0.10;;;13.30;99.90;;;;;;5013472;28;22057;-64
2023/04/30 09:31:35;;;;;;;0.75;0.75;;;13.20;99.90;;;;;;5023014;28;20045;-64
2023/04/30 09:34:01;;;;;;;0.15;0.15;;;13.40;99.90;;;;;;5012300;28;20054;-64
2023/04/30 09:36:27;;;;;;;0.10;0.10;;;13.50;99.90;;;;;;5022770;28;20044;-64
2023/04/30 09:38:52;;;;;;;0.80;0.75;;;13.70;99.90;;;;;;5012443;28;20083;-64
2023/04/30 09:41:26;;;;;;;0.10;0.10;;;13.90;99.90;;;;;;5013911;28;20540;-64
2023/04/30 09:43:55;;;;;;;1.30;1.20;;;14.10;99.90;;;;;;5007829;28;20038;-64
2023/04/30 09:46:29;;;;;;;0.22;0.22;;;14.50;99.90;;;;;;5019180;28;20561;-64
2023/04/30 09:48:59;;;;;;;0.00;0.00;;;14.90;99.90;;;;;;5014847;28;20115;-64
2023/04/30 09:51:25;;;;;;;0.10;0.10;;;15.60;99.90;;;;;;5010382;28;20537;-64
2023/04/30 09:53:52;;;;;;;0.85;0.55;;;15.90;99.90;;;;;;5027364;28;20128;-65
2023/04/30 09:56:21;;;;;;;0.13;0.13;;;16.10;99.90;;;;;;5033909;28;20469;-64
2023/04/30 09:58:53;;;;;;;0.40;0.40;;;16.40;99.90;;;;;;5012090;28;20120;-63
2023/04/30 10:01:26;;;;;;;0.75;0.75;;;16.30;99.90;;;;;;5010654;28;20084;-63
2023/04/30 10:03:52;;;;;;;1.17;1.10;;;16.60;99.90;;;;;;5014600;28;20657;-64
2023/04/30 10:06:20;;;;;;;0.00;0.00;;;16.90;99.90;;;;;;5017638;28;20170;-64
2023/04/30 10:08:49;;;;;;;0.13;0.13;;;17.30;99.90;;;;;;5015643;28;20056;-63
2023/04/30 10:11:20;;;;;;;0.00;0.00;;;17.20;99.90;;;;;;5011110;28;20046;-64
2023/04/30 10:14:02;;;;;;;0.00;0.00;;;17.40;99.90;;;;;;5011205;28;20048;-63
2023/04/30 10:16:42;;;;;;;9.85;0.65;;;17.40;99.90;;;;;;5019624;28;20520;-64
2023/04/30 10:19:19;;;;;;;0.05;0.05;;;17.40;99.90;;;;;;5022722;28;20493;-64
2023/04/30 10:21:46;;;;;;;0.65;0.57;;;17.50;99.90;;;;;;5018856;28;20041;-65
2023/04/30 10:24:19;;;;;;;0.00;0.00;;;17.50;99.90;;;;;;5009442;28;20499;-65
2023/04/30 10:26:48;;;;;;;0.00;0.00;;;17.40;99.90;;;;;;5009067;28;20069;-65
2023/04/30 10:29:15;;;;;;;0.30;0.15;;;17.30;99.90;;;;;;5017293;28;20041;-64
2023/04/30 10:31:45;;;;;;;0.10;0.10;;;17.40;99.90;;;;;;5010606;28;20088;-64
2023/04/30 10:34:51;;;;;;;0.00;0.00;;;17.50;99.90;;;;;;5011054;28;22085;-65
2023/04/30 10:37:30;;;;;;;0.00;0.00;;;17.40;99.90;;;;;;5015140;28;20037;-64
2023/04/30 10:39:56;;;;;;;0.10;0.10;;;17.30;99.90;;;;;;5010925;28;20042;-65
2023/04/30 10:42:21;;;;;;;0.00;0.00;;;17.50;99.90;;;;;;5010356;28;20054;-65
2023/04/30 10:44:47;;;;;;;0.00;0.00;;;17.20;99.90;;;;;;5009582;28;20034;-64
2023/04/30 10:47:15;;;;;;;0.85;0.68;;;17.30;99.90;;;;;;5011135;28;20042;-65
2023/04/30 10:49:48;;;;;;;0.10;0.10;;;17.50;99.90;;;;;;5025861;28;20037;-65
2023/04/30 10:52:24;;;;;;;0.00;0.00;;;17.50;99.90;;;;;;5008808;28;20153;-65
2023/04/30 10:54:50;;;;;;;0.00;0.00;;;17.30;99.90;;;;;;5011965;28;20089;-65
2023/04/30 10:57:17;;;;;;;0.05;0.05;;;17.40;99.90;;;;;;5016699;28;20628;-65
2023/04/30 10:59:49;;;;;;;0.00;0.00;;;17.40;99.90;;;;;;5011893;28;20066;-65
2023/04/30 11:02:18;;;;;;;0.22;0.22;;;17.50;99.90;;;;;;5022975;28;20077;-65
2023/04/30 11:05:06;;;;;;;0.28;0.28;;;17.50;99.90;;;;;;5009448;28;20073;-65
2023/04/30 11:07:32;;;;;;;0.00;0.00;;;17.60;99.90;;;;;;5010041;28;20046;-65
2023/04/30 11:09:59;;;;;;;0.25;0.25;;;17.70;99.90;;;;;;5017321;28;20048;-64
2023/04/30 11:12:29;;;;;;;0.00;0.00;;;18.00;99.90;;;;;;5023656;28;20084;-64
2023/04/30 11:15:05;;;;;;;0.10;0.10;;;18.10;99.90;;;;;;5012813;28;20042;-64
2023/04/30 11:17:31;;;;;;;0.00;0.00;;;18.10;99.90;;;;;;5024399;28;20037;-64
2023/04/30 11:20:00;;;;;;;0.30;0.30;;;18.30;99.90;;;;;;5026132;28;20042;-64
2023/04/30 11:22:28;;;;;;;0.20;0.20;;;18.30;99.90;;;;;;5013434;28;20732;-64
2023/04/30 11:25:11;;;;;;;0.00;0.00;;;18.50;99.90;;;;;;5009443;28;20056;-64
2023/04/30 11:27:45;;;;;;;0.00;0.00;;;18.60;99.90;;;;;;5008854;28;20398;-64
2023/04/30 11:30:14;;;;;;;;;;;18.60;99.90;;;;;;5010523;28;20168;-64
2023/04/30 11:32:47;;;;;;;0.00;0.00;;;18.60;99.90;;;;;;5008875;28;19921;-64
2023/04/30 11:35:16;;;;;;;;;;;18.70;99.90;;;;;;5010445;28;20417;-64
2023/04/30 11:37:43;;;;;;;0.00;0.00;;;18.70;99.90;;;;;;5009038;28;19921;-64
2023/04/30 11:40:10;;;;;;;0.10;0.10;;;19.00;99.90;;;;;;5015246;28;20049;-64
2023/04/30 11:42:42;;;;;;;1.17;0.10;;;19.00;99.90;;;;;;5012647;28;20040;-64
2023/04/30 11:45:14;;;;;;;0.00;0.00;;;18.80;99.90;;;;;;5013236;28;20041;-64
2023/04/30 11:47:41;;;;;;;0.00;0.00;;;19.10;99.90;;;;;;5014114;28;20042;-64
2023/04/30 11:50:09;;;;;;;0.00;0.00;;;18.80;99.90;;;;;;5009475;28;20078;-65
2023/04/30 11:52:35;;;;;;;0.00;0.00;;;19.20;99.90;;;;;;5007460;28;20066;-64
2023/04/30 11:55:04;;;;;;;0.30;0.30;;;19.40;99.90;;;;;;5026624;28;20064;-64
2023/04/30 11:57:39;;;;;;;0.00;0.00;;;19.60;99.90;;;;;;5016433;28;20054;-64
2023/04/30 12:00:32;;;;;;;19.65;3.08;;;19.00;99.90;;;;;;5009273;28;20045;-65
2023/04/30 12:02:59;;;;;;;0.22;0.22;;;19.40;99.90;;;;;;5006597;28;20054;-65
2023/04/30 12:05:26;;;;;;;0.00;0.00;;;19.70;99.90;;;;;;5008751;28;20049;-65
2023/04/30 12:08:03;;;;;;;2.47;2.30;;;19.80;99.90;;;;;;5008369;28;20046;-65
2023/04/30 12:10:30;;;;;;;86.40;6.03;;;19.60;99.90;;;;;;5007909;28;20486;-65
2023/04/30 12:12:56;;;;;;;62.08;7.45;;;19.80;99.90;;;;;;5008793;28;20081;-65
2023/04/30 12:15:25;;;;;;;126.70;9.43;;;20.00;99.90;;;;;;5023197;28;20073;-64
2023/04/30 12:17:53;;;;;;;0.43;0.20;;;20.20;99.90;;;;;;5021878;28;20075;-64
2023/04/30 12:20:20;;;;;;;0.10;0.10;;;20.40;99.90;;;;;;5015173;28;20064;-65
2023/04/30 12:22:47;;;;;;;1.50;0.43;;;20.40;99.90;;;;;;5009269;28;20057;-64
2023/04/30 12:25:14;;;;;;;2.20;0.40;;;20.10;99.90;;;;;;5049536;28;20056;-64
2023/04/30 12:27:51;;;;;;;110.55;6.70;;;20.20;99.90;;;;;;5017580;28;20116;-63
2023/04/30 12:30:22;;;;;;;4.78;1.42;;;19.80;99.90;;;;;;5017160;28;20069;-63
2023/04/30 12:32:49;;;;;;;355.70;13.30;;;19.90;99.90;;;;;;5014351;28;20084;-64
2023/04/30 12:35:20;;;;;;;2.80;1.08;;;19.40;99.90;;;;;;5010246;28;20137;-64
2023/04/30 12:37:51;;;;;;;1295.45;75.75;;;19.10;99.90;;;;;;5024874;28;20056;-64
2023/04/30 12:40:18;;;;;;;3.95;1.40;;;19.20;99.90;;;;;;5016420;28;20038;-64
2023/04/30 12:42:45;;;;;;;6.10;1.23;;;19.90;99.90;;;;;;5008134;28;20124;-64
2023/04/30 12:45:12;;;;;;;6.68;1.45;;;19.40;99.90;;;;;;5007139;28;20084;-64
2023/04/30 12:47:39;;;;;;;4.40;1.50;;;19.70;99.90;;;;;;5015305;28;20054;-64
2023/04/30 12:50:10;;;;;;;2.70;1.48;;;19.80;99.90;;;;;;5017543;28;20038;-64
2023/04/30 12:52:36;;;;;;;3.85;1.48;;;19.30;99.90;;;;;;5008630;28;20042;-64
2023/04/30 12:55:22;;;;;;;3.00;1.30;;;19.10;99.90;;;;;;5021539;28;20048;-64
2023/04/30 12:58:09;;;;;;;3.97;1.15;;;19.00;99.90;;;;;;5017900;28;20057;-64